sensor_id;sensor_type;location;lat;lon;timestamp;P1;durP1;ratioP1;P2;durP2;ratioP2
35150;SDS011;55720;51.972;4.624;2023-04-15T00:00:35;10.80;;;3.80;;
35150;SDS011;55720;51.972;4.624;2023-04-15T00:03:01;9.80;;;3.80;;
35150;SDS011;55720;51.972;4.624;2023-04-15T00:05:28;6.40;;;3.33;;
35150;SDS011;55720;51.972;4.624;2023-04-15T00:07:55;6.35;;;3.85;;
35150;SDS011;55720;51.972;4.624;2023-04-15T00:10:20;8.82;;;4.45;;
35150;SDS011;55720;51.972;4.624;2023-04-15T00:12:46;6.03;;;3.65;;
35150;SDS011;55720;51.972;4.624;2023-04-15T00:15:11;7.43;;;4.45;;
35150;SDS011;55720;51.972;4.624;2023-04-15T00:17:37;7.38;;;3.63;;
35150;SDS011;55720;51.972;4.624;2023-04-15T00:20:03;12.15;;;3.55;;
35150;SDS011;55720;51.972;4.624;2023-04-15T00:22:30;7.47;;;3.92;;
35150;SDS011;55720;51.972;4.624;2023-04-15T00:24:56;8.05;;;4.18;;
35150;SDS011;55720;51.972;4.624;2023-04-15T00:27:22;6.32;;;4.07;;
35150;SDS011;55720;51.972;4.624;2023-04-15T00:29:47;9.73;;;4.68;;
35150;SDS011;55720;51.972;4.624;2023-04-15T00:32:13;11.98;;;5.03;;
35150;SDS011;55720;51.972;4.624;2023-04-15T00:34:38;8.45;;;4.20;;
35150;SDS011;55720;51.972;4.624;2023-04-15T00:37:03;10.70;;;4.50;;
35150;SDS011;55720;51.972;4.624;2023-04-15T00:39:29;6.03;;;4.40;;
35150;SDS011;55720;51.972;4.624;2023-04-15T00:41:54;7.55;;;4.80;;
35150;SDS011;55720;51.972;4.624;2023-04-15T00:44:21;10.68;;;4.88;;
35150;SDS011;55720;51.972;4.624;2023-04-15T00:46:47;10.98;;;4.60;;
35150;SDS011;55720;51.972;4.624;2023-04-15T00:49:15;7.15;;;5.00;;
35150;SDS011;55720;51.972;4.624;2023-04-15T00:51:42;10.73;;;4.72;;
35150;SDS011;55720;51.972;4.624;2023-04-15T00:54:08;6.80;;;4.63;;
35150;SDS011;55720;51.972;4.624;2023-04-15T00:56:34;9.85;;;5.30;;
35150;SDS011;55720;51.972;4.624;2023-04-15T00:59:02;11.50;;;5.50;;
35150;SDS011;55720;51.972;4.624;2023-04-15T01:01:28;11.15;;;5.13;;
35150;SDS011;55720;51.972;4.624;2023-04-15T01:03:55;8.82;;;5.50;;
35150;SDS011;55720;51.972;4.624;2023-04-15T01:06:22;8.45;;;4.93;;
35150;SDS011;55720;51.972;4.624;2023-04-15T01:08:48;9.00;;;4.57;;
35150;SDS011;55720;51.972;4.624;2023-04-15T01:11:13;7.45;;;4.88;;
35150;SDS011;55720;51.972;4.624;2023-04-15T01:13:39;10.25;;;5.30;;
35150;SDS011;55720;51.972;4.624;2023-04-15T01:16:05;12.70;;;5.35;;
35150;SDS011;55720;51.972;4.624;2023-04-15T01:18:32;6.90;;;5.07;;
35150;SDS011;55720;51.972;4.624;2023-04-15T01:20:59;10.25;;;5.22;;
35150;SDS011;55720;51.972;4.624;2023-04-15T01:23:26;8.45;;;5.03;;
35150;SDS011;55720;51.972;4.624;2023-04-15T01:25:52;10.50;;;5.45;;
35150;SDS011;55720;51.972;4.624;2023-04-15T01:28:17;10.95;;;5.70;;
35150;SDS011;55720;51.972;4.624;2023-04-15T01:30:43;6.90;;;5.20;;
35150;SDS011;55720;51.972;4.624;2023-04-15T01:33:08;8.07;;;5.07;;
35150;SDS011;55720;51.972;4.624;2023-04-15T01:35:34;8.45;;;5.43;;
35150;SDS011;55720;51.972;4.624;2023-04-15T01:38:04;15.05;;;5.45;;
35150;SDS011;55720;51.972;4.624;2023-04-15T01:40:31;8.75;;;5.15;;
35150;SDS011;55720;51.972;4.624;2023-04-15T01:42:57;12.90;;;5.18;;
35150;SDS011;55720;51.972;4.624;2023-04-15T01:45:23;8.77;;;5.85;;
35150;SDS011;55720;51.972;4.624;2023-04-15T01:47:48;11.02;;;6.00;;
35150;SDS011;55720;51.972;4.624;2023-04-15T01:50:14;13.65;;;5.80;;
35150;SDS011;55720;51.972;4.624;2023-04-15T01:52:40;8.25;;;5.55;;
35150;SDS011;55720;51.972;4.624;2023-04-15T01:55:05;9.25;;;5.85;;
35150;SDS011;55720;51.972;4.624;2023-04-15T01:57:32;9.23;;;5.95;;
35150;SDS011;55720;51.972;4.624;2023-04-15T01:59:57;10.77;;;5.70;;
35150;SDS011;55720;51.972;4.624;2023-04-15T02:02:23;8.23;;;5.88;;
35150;SDS011;55720;51.972;4.624;2023-04-15T02:04:48;9.70;;;6.07;;
35150;SDS011;55720;51.972;4.624;2023-04-15T02:07:14;7.75;;;5.30;;
35150;SDS011;55720;51.972;4.624;2023-04-15T02:09:39;10.50;;;6.22;;
35150;SDS011;55720;51.972;4.624;2023-04-15T02:12:05;6.50;;;5.90;;
35150;SDS011;55720;51.972;4.624;2023-04-15T02:14:30;12.75;;;5.88;;
35150;SDS011;55720;51.972;4.624;2023-04-15T02:16:56;13.02;;;6.00;;
35150;SDS011;55720;51.972;4.624;2023-04-15T02:19:21;10.60;;;6.72;;
35150;SDS011;55720;51.972;4.624;2023-04-15T02:21:46;9.32;;;5.55;;
35150;SDS011;55720;51.972;4.624;2023-04-15T02:24:12;9.68;;;6.38;;
35150;SDS011;55720;51.972;4.624;2023-04-15T02:26:37;8.52;;;6.28;;
35150;SDS011;55720;51.972;4.624;2023-04-15T02:29:03;12.43;;;6.50;;
35150;SDS011;55720;51.972;4.624;2023-04-15T02:31:28;8.70;;;6.40;;
35150;SDS011;55720;51.972;4.624;2023-04-15T02:33:54;11.77;;;7.00;;
35150;SDS011;55720;51.972;4.624;2023-04-15T02:36:19;9.60;;;6.30;;
35150;SDS011;55720;51.972;4.624;2023-04-15T02:38:45;10.20;;;6.47;;
35150;SDS011;55720;51.972;4.624;2023-04-15T02:41:10;8.40;;;6.40;;
35150;SDS011;55720;51.972;4.624;2023-04-15T02:43:36;10.10;;;6.20;;
35150;SDS011;55720;51.972;4.624;2023-04-15T02:46:03;10.70;;;5.97;;
35150;SDS011;55720;51.972;4.624;2023-04-15T02:48:29;12.73;;;6.55;;
35150;SDS011;55720;51.972;4.624;2023-04-15T02:51:09;9.13;;;6.07;;
35150;SDS011;55720;51.972;4.624;2023-04-15T02:53:35;12.05;;;6.50;;
35150;SDS011;55720;51.972;4.624;2023-04-15T02:56:01;10.07;;;6.57;;
35150;SDS011;55720;51.972;4.624;2023-04-15T02:58:26;11.38;;;6.60;;
35150;SDS011;55720;51.972;4.624;2023-04-15T03:00:51;13.52;;;6.05;;
35150;SDS011;55720;51.972;4.624;2023-04-15T03:03:17;8.32;;;6.00;;
35150;SDS011;55720;51.972;4.624;2023-04-15T03:05:43;9.77;;;6.63;;
35150;SDS011;55720;51.972;4.624;2023-04-15T03:08:08;7.78;;;6.03;;
35150;SDS011;55720;51.972;4.624;2023-04-15T03:10:34;8.45;;;6.25;;
35150;SDS011;55720;51.972;4.624;2023-04-15T03:12:59;10.52;;;6.55;;
35150;SDS011;55720;51.972;4.624;2023-04-15T03:15:25;7.15;;;6.07;;
35150;SDS011;55720;51.972;4.624;2023-04-15T03:17:51;12.30;;;5.93;;
35150;SDS011;55720;51.972;4.624;2023-04-15T03:20:16;9.95;;;6.18;;
35150;SDS011;55720;51.972;4.624;2023-04-15T03:22:42;12.90;;;6.15;;
35150;SDS011;55720;51.972;4.624;2023-04-15T03:25:07;7.07;;;5.45;;
35150;SDS011;55720;51.972;4.624;2023-04-15T03:27:33;14.45;;;6.47;;
35150;SDS011;55720;51.972;4.624;2023-04-15T03:29:58;6.28;;;5.50;;
35150;SDS011;55720;51.972;4.624;2023-04-15T03:32:23;7.43;;;5.95;;
35150;SDS011;55720;51.972;4.624;2023-04-15T03:34:49;8.48;;;5.70;;
35150;SDS011;55720;51.972;4.624;2023-04-15T03:37:14;9.98;;;5.63;;
35150;SDS011;55720;51.972;4.624;2023-04-15T03:39:40;11.25;;;5.47;;
35150;SDS011;55720;51.972;4.624;2023-04-15T03:42:05;10.90;;;6.47;;
35150;SDS011;55720;51.972;4.624;2023-04-15T03:44:31;7.32;;;5.85;;
35150;SDS011;55720;51.972;4.624;2023-04-15T03:46:56;7.55;;;6.22;;
35150;SDS011;55720;51.972;4.624;2023-04-15T03:49:22;7.93;;;5.68;;
35150;SDS011;55720;51.972;4.624;2023-04-15T03:51:48;6.72;;;6.03;;
35150;SDS011;55720;51.972;4.624;2023-04-15T03:54:13;8.73;;;6.05;;
35150;SDS011;55720;51.972;4.624;2023-04-15T03:56:39;7.57;;;5.68;;
35150;SDS011;55720;51.972;4.624;2023-04-15T03:59:04;9.60;;;6.55;;
35150;SDS011;55720;51.972;4.624;2023-04-15T04:01:30;11.40;;;5.95;;
35150;SDS011;55720;51.972;4.624;2023-04-15T04:03:55;9.85;;;6.75;;
35150;SDS011;55720;51.972;4.624;2023-04-15T04:06:20;9.90;;;6.18;;
35150;SDS011;55720;51.972;4.624;2023-04-15T04:08:46;8.05;;;6.50;;
35150;SDS011;55720;51.972;4.624;2023-04-15T04:11:11;6.93;;;6.22;;
35150;SDS011;55720;51.972;4.624;2023-04-15T04:13:37;12.10;;;6.93;;
35150;SDS011;55720;51.972;4.624;2023-04-15T04:16:02;10.77;;;6.93;;
35150;SDS011;55720;51.972;4.624;2023-04-15T04:18:31;8.35;;;6.55;;
35150;SDS011;55720;51.972;4.624;2023-04-15T04:20:56;8.82;;;6.90;;
35150;SDS011;55720;51.972;4.624;2023-04-15T04:23:22;10.02;;;6.28;;
35150;SDS011;55720;51.972;4.624;2023-04-15T04:25:47;11.00;;;6.93;;
35150;SDS011;55720;51.972;4.624;2023-04-15T04:28:13;10.57;;;6.95;;
35150;SDS011;55720;51.972;4.624;2023-04-15T04:30:38;9.15;;;7.07;;
35150;SDS011;55720;51.972;4.624;2023-04-15T04:33:04;11.15;;;7.20;;
35150;SDS011;55720;51.972;4.624;2023-04-15T04:35:30;9.93;;;7.38;;
35150;SDS011;55720;51.972;4.624;2023-04-15T04:37:58;11.82;;;7.22;;
35150;SDS011;55720;51.972;4.624;2023-04-15T04:40:24;13.00;;;7.55;;
35150;SDS011;55720;51.972;4.624;2023-04-15T04:42:50;9.23;;;7.50;;
35150;SDS011;55720;51.972;4.624;2023-04-15T04:45:15;11.57;;;7.65;;
35150;SDS011;55720;51.972;4.624;2023-04-15T04:47:41;12.35;;;7.65;;
35150;SDS011;55720;51.972;4.624;2023-04-15T04:50:06;11.00;;;7.60;;
35150;SDS011;55720;51.972;4.624;2023-04-15T04:52:33;10.55;;;7.50;;
35150;SDS011;55720;51.972;4.624;2023-04-15T04:54:58;10.38;;;7.72;;
35150;SDS011;55720;51.972;4.624;2023-04-15T04:57:23;12.93;;;7.57;;
35150;SDS011;55720;51.972;4.624;2023-04-15T04:59:49;15.68;;;8.10;;
35150;SDS011;55720;51.972;4.624;2023-04-15T05:02:15;15.82;;;8.50;;
35150;SDS011;55720;51.972;4.624;2023-04-15T05:04:40;13.90;;;9.00;;
35150;SDS011;55720;51.972;4.624;2023-04-15T05:07:05;12.05;;;8.10;;
35150;SDS011;55720;51.972;4.624;2023-04-15T05:09:31;12.68;;;8.02;;
35150;SDS011;55720;51.972;4.624;2023-04-15T05:11:57;10.50;;;8.93;;
35150;SDS011;55720;51.972;4.624;2023-04-15T05:14:22;12.50;;;8.55;;
35150;SDS011;55720;51.972;4.624;2023-04-15T05:16:47;11.55;;;8.95;;
35150;SDS011;55720;51.972;4.624;2023-04-15T05:19:13;9.40;;;7.80;;
35150;SDS011;55720;51.972;4.624;2023-04-15T05:21:38;9.68;;;7.28;;
35150;SDS011;55720;51.972;4.624;2023-04-15T05:24:03;10.55;;;7.55;;
35150;SDS011;55720;51.972;4.624;2023-04-15T05:26:29;17.17;;;7.57;;
35150;SDS011;55720;51.972;4.624;2023-04-15T05:28:55;11.18;;;8.27;;
35150;SDS011;55720;51.972;4.624;2023-04-15T05:31:20;10.90;;;8.50;;
35150;SDS011;55720;51.972;4.624;2023-04-15T05:33:46;12.80;;;7.95;;
35150;SDS011;55720;51.972;4.624;2023-04-15T05:36:11;12.27;;;8.15;;
35150;SDS011;55720;51.972;4.624;2023-04-15T05:38:37;12.57;;;8.13;;
35150;SDS011;55720;51.972;4.624;2023-04-15T05:41:02;13.05;;;8.20;;
35150;SDS011;55720;51.972;4.624;2023-04-15T05:43:28;17.13;;;8.25;;
35150;SDS011;55720;51.972;4.624;2023-04-15T05:45:54;12.13;;;7.88;;
35150;SDS011;55720;51.972;4.624;2023-04-15T05:48:20;15.18;;;8.90;;
35150;SDS011;55720;51.972;4.624;2023-04-15T05:50:46;12.98;;;8.07;;
35150;SDS011;55720;51.972;4.624;2023-04-15T05:53:11;10.93;;;7.68;;
35150;SDS011;55720;51.972;4.624;2023-04-15T05:55:36;14.20;;;7.22;;
35150;SDS011;55720;51.972;4.624;2023-04-15T05:58:02;13.93;;;7.32;;
35150;SDS011;55720;51.972;4.624;2023-04-15T06:00:27;11.20;;;6.78;;
35150;SDS011;55720;51.972;4.624;2023-04-15T06:02:53;10.40;;;7.00;;
35150;SDS011;55720;51.972;4.624;2023-04-15T06:05:19;10.52;;;7.20;;
35150;SDS011;55720;51.972;4.624;2023-04-15T06:07:45;8.52;;;6.93;;
35150;SDS011;55720;51.972;4.624;2023-04-15T06:10:10;10.32;;;7.47;;
35150;SDS011;55720;51.972;4.624;2023-04-15T06:12:36;9.48;;;7.22;;
35150;SDS011;55720;51.972;4.624;2023-04-15T06:15:01;8.82;;;7.13;;
35150;SDS011;55720;51.972;4.624;2023-04-15T06:17:27;8.82;;;7.10;;
35150;SDS011;55720;51.972;4.624;2023-04-15T06:19:53;16.30;;;8.05;;
35150;SDS011;55720;51.972;4.624;2023-04-15T06:22:22;13.63;;;7.72;;
35150;SDS011;55720;51.972;4.624;2023-04-15T06:24:51;10.68;;;7.18;;
35150;SDS011;55720;51.972;4.624;2023-04-15T06:27:17;11.10;;;7.65;;
35150;SDS011;55720;51.972;4.624;2023-04-15T06:29:43;19.85;;;8.48;;
35150;SDS011;55720;51.972;4.624;2023-04-15T06:32:08;9.88;;;6.80;;
35150;SDS011;55720;51.972;4.624;2023-04-15T06:34:35;10.48;;;7.00;;
35150;SDS011;55720;51.972;4.624;2023-04-15T06:37:00;10.98;;;7.13;;
35150;SDS011;55720;51.972;4.624;2023-04-15T06:39:25;9.05;;;7.05;;
35150;SDS011;55720;51.972;4.624;2023-04-15T06:41:51;12.35;;;7.15;;
35150;SDS011;55720;51.972;4.624;2023-04-15T06:44:17;8.00;;;5.95;;
35150;SDS011;55720;51.972;4.624;2023-04-15T06:46:42;9.07;;;6.05;;
35150;SDS011;55720;51.972;4.624;2023-04-15T06:49:08;6.35;;;5.75;;
35150;SDS011;55720;51.972;4.624;2023-04-15T06:51:34;7.10;;;5.95;;
35150;SDS011;55720;51.972;4.624;2023-04-15T06:54:00;8.75;;;5.55;;
35150;SDS011;55720;51.972;4.624;2023-04-15T06:56:26;8.02;;;5.40;;
35150;SDS011;55720;51.972;4.624;2023-04-15T06:58:52;8.98;;;5.57;;
35150;SDS011;55720;51.972;4.624;2023-04-15T07:01:17;5.70;;;4.93;;
35150;SDS011;55720;51.972;4.624;2023-04-15T07:03:43;7.50;;;5.22;;
35150;SDS011;55720;51.972;4.624;2023-04-15T07:06:08;6.57;;;5.10;;
35150;SDS011;55720;51.972;4.624;2023-04-15T07:08:34;7.10;;;5.90;;
35150;SDS011;55720;51.972;4.624;2023-04-15T07:10:59;7.75;;;5.47;;
35150;SDS011;55720;51.972;4.624;2023-04-15T07:13:25;7.38;;;5.47;;
35150;SDS011;55720;51.972;4.624;2023-04-15T07:15:51;5.90;;;5.32;;
35150;SDS011;55720;51.972;4.624;2023-04-15T07:18:16;6.20;;;5.30;;
35150;SDS011;55720;51.972;4.624;2023-04-15T07:20:41;6.63;;;5.05;;
35150;SDS011;55720;51.972;4.624;2023-04-15T07:23:07;6.82;;;6.03;;
35150;SDS011;55720;51.972;4.624;2023-04-15T07:25:33;5.90;;;5.40;;
35150;SDS011;55720;51.972;4.624;2023-04-15T07:27:58;6.93;;;5.63;;
35150;SDS011;55720;51.972;4.624;2023-04-15T07:30:23;6.03;;;5.43;;
35150;SDS011;55720;51.972;4.624;2023-04-15T07:32:49;6.65;;;5.97;;
35150;SDS011;55720;51.972;4.624;2023-04-15T07:35:14;5.60;;;5.10;;
35150;SDS011;55720;51.972;4.624;2023-04-15T07:37:40;5.80;;;5.20;;
35150;SDS011;55720;51.972;4.624;2023-04-15T07:40:07;6.30;;;5.70;;
35150;SDS011;55720;51.972;4.624;2023-04-15T07:42:33;7.35;;;5.80;;
35150;SDS011;55720;51.972;4.624;2023-04-15T07:44:59;6.13;;;5.53;;
35150;SDS011;55720;51.972;4.624;2023-04-15T07:47:24;9.02;;;5.72;;
35150;SDS011;55720;51.972;4.624;2023-04-15T07:49:51;6.78;;;6.07;;
35150;SDS011;55720;51.972;4.624;2023-04-15T07:52:16;7.50;;;6.00;;
35150;SDS011;55720;51.972;4.624;2023-04-15T07:54:42;7.43;;;6.13;;
35150;SDS011;55720;51.972;4.624;2023-04-15T07:57:07;6.30;;;5.70;;
35150;SDS011;55720;51.972;4.624;2023-04-15T07:59:32;7.75;;;6.45;;
35150;SDS011;55720;51.972;4.624;2023-04-15T08:01:58;6.10;;;5.20;;
35150;SDS011;55720;51.972;4.624;2023-04-15T08:04:23;6.57;;;5.95;;
35150;SDS011;55720;51.972;4.624;2023-04-15T08:06:49;7.35;;;5.38;;
35150;SDS011;55720;51.972;4.624;2023-04-15T08:09:15;8.00;;;5.13;;
35150;SDS011;55720;51.972;4.624;2023-04-15T08:11:40;6.72;;;5.00;;
35150;SDS011;55720;51.972;4.624;2023-04-15T08:14:06;5.53;;;5.03;;
35150;SDS011;55720;51.972;4.624;2023-04-15T08:16:31;5.88;;;5.25;;
35150;SDS011;55720;51.972;4.624;2023-04-15T08:18:57;6.75;;;4.90;;
35150;SDS011;55720;51.972;4.624;2023-04-15T08:21:23;6.43;;;5.38;;
35150;SDS011;55720;51.972;4.624;2023-04-15T08:23:50;6.10;;;5.35;;
35150;SDS011;55720;51.972;4.624;2023-04-15T08:26:17;7.43;;;5.55;;
35150;SDS011;55720;51.972;4.624;2023-04-15T08:28:43;5.88;;;5.28;;
35150;SDS011;55720;51.972;4.624;2023-04-15T08:31:10;6.53;;;5.55;;
35150;SDS011;55720;51.972;4.624;2023-04-15T08:33:37;7.25;;;5.57;;
35150;SDS011;55720;51.972;4.624;2023-04-15T08:36:02;7.90;;;5.93;;
35150;SDS011;55720;51.972;4.624;2023-04-15T08:38:28;6.15;;;5.55;;
35150;SDS011;55720;51.972;4.624;2023-04-15T08:40:54;6.90;;;5.95;;
35150;SDS011;55720;51.972;4.624;2023-04-15T08:43:22;8.45;;;5.70;;
35150;SDS011;55720;51.972;4.624;2023-04-15T08:45:54;7.72;;;6.55;;
35150;SDS011;55720;51.972;4.624;2023-04-15T08:48:20;7.65;;;5.68;;
35150;SDS011;55720;51.972;4.624;2023-04-15T08:50:48;7.45;;;6.28;;
35150;SDS011;55720;51.972;4.624;2023-04-15T08:53:15;7.15;;;5.75;;
35150;SDS011;55720;51.972;4.624;2023-04-15T08:55:44;6.22;;;5.28;;
35150;SDS011;55720;51.972;4.624;2023-04-15T08:58:11;6.72;;;5.32;;
35150;SDS011;55720;51.972;4.624;2023-04-15T09:00:38;4.97;;;4.47;;
35150;SDS011;55720;51.972;4.624;2023-04-15T09:03:04;6.13;;;5.55;;
35150;SDS011;55720;51.972;4.624;2023-04-15T09:05:33;7.05;;;5.68;;
35150;SDS011;55720;51.972;4.624;2023-04-15T09:08:00;6.07;;;5.43;;
35150;SDS011;55720;51.972;4.624;2023-04-15T09:10:26;5.80;;;5.20;;
35150;SDS011;55720;51.972;4.624;2023-04-15T09:12:52;7.13;;;5.20;;
35150;SDS011;55720;51.972;4.624;2023-04-15T09:15:17;7.80;;;6.22;;
35150;SDS011;55720;51.972;4.624;2023-04-15T09:17:43;6.63;;;5.85;;
35150;SDS011;55720;51.972;4.624;2023-04-15T09:20:10;6.93;;;5.00;;
35150;SDS011;55720;51.972;4.624;2023-04-15T09:22:37;6.28;;;4.72;;
35150;SDS011;55720;51.972;4.624;2023-04-15T09:25:05;6.68;;;4.50;;
35150;SDS011;55720;51.972;4.624;2023-04-15T09:27:51;6.03;;;4.22;;
35150;SDS011;55720;51.972;4.624;2023-04-15T09:30:18;4.78;;;4.03;;
35150;SDS011;55720;51.972;4.624;2023-04-15T09:33:02;6.60;;;4.97;;
35150;SDS011;55720;51.972;4.624;2023-04-15T09:35:32;7.90;;;4.90;;
35150;SDS011;55720;51.972;4.624;2023-04-15T09:38:03;8.52;;;4.75;;
35150;SDS011;55720;51.972;4.624;2023-04-15T09:40:33;5.38;;;3.92;;
35150;SDS011;55720;51.972;4.624;2023-04-15T09:43:01;6.35;;;4.25;;
35150;SDS011;55720;51.972;4.624;2023-04-15T09:45:28;6.13;;;4.55;;
35150;SDS011;55720;51.972;4.624;2023-04-15T09:47:53;5.35;;;4.07;;
35150;SDS011;55720;51.972;4.624;2023-04-15T09:50:19;6.18;;;4.03;;
35150;SDS011;55720;51.972;4.624;2023-04-15T09:52:45;3.85;;;3.22;;
35150;SDS011;55720;51.972;4.624;2023-04-15T09:55:11;3.33;;;3.03;;
35150;SDS011;55720;51.972;4.624;2023-04-15T09:57:38;4.20;;;3.35;;
35150;SDS011;55720;51.972;4.624;2023-04-15T10:00:08;3.28;;;2.95;;
35150;SDS011;55720;51.972;4.624;2023-04-15T10:02:35;3.45;;;2.67;;
35150;SDS011;55720;51.972;4.624;2023-04-15T10:05:02;3.63;;;1.92;;
35150;SDS011;55720;51.972;4.624;2023-04-15T10:07:27;4.15;;;2.25;;
35150;SDS011;55720;51.972;4.624;2023-04-15T10:09:53;2.60;;;2.00;;
35150;SDS011;55720;51.972;4.624;2023-04-15T10:12:19;3.15;;;1.70;;
35150;SDS011;55720;51.972;4.624;2023-04-15T10:14:52;3.63;;;1.73;;
35150;SDS011;55720;51.972;4.624;2023-04-15T10:17:25;4.03;;;2.20;;
35150;SDS011;55720;51.972;4.624;2023-04-15T10:19:53;2.40;;;1.85;;
35150;SDS011;55720;51.972;4.624;2023-04-15T10:22:19;3.00;;;1.90;;
35150;SDS011;55720;51.972;4.624;2023-04-15T10:24:47;3.78;;;2.10;;
35150;SDS011;55720;51.972;4.624;2023-04-15T10:27:13;5.38;;;2.42;;
35150;SDS011;55720;51.972;4.624;2023-04-15T10:29:40;3.35;;;2.03;;
35150;SDS011;55720;51.972;4.624;2023-04-15T10:32:06;4.93;;;2.50;;
35150;SDS011;55720;51.972;4.624;2023-04-15T10:34:32;6.80;;;2.63;;
35150;SDS011;55720;51.972;4.624;2023-04-15T10:37:00;4.43;;;3.17;;
35150;SDS011;55720;51.972;4.624;2023-04-15T10:42:13;2.80;;;2.20;;
35150;SDS011;55720;51.972;4.624;2023-04-15T10:44:50;2.33;;;2.13;;
35150;SDS011;55720;51.972;4.624;2023-04-15T10:47:20;2.20;;;1.50;;
35150;SDS011;55720;51.972;4.624;2023-04-15T10:49:47;4.80;;;2.25;;
35150;SDS011;55720;51.972;4.624;2023-04-15T10:52:22;2.88;;;2.40;;
35150;SDS011;55720;51.972;4.624;2023-04-15T10:54:49;3.83;;;2.83;;
35150;SDS011;55720;51.972;4.624;2023-04-15T10:57:27;7.00;;;2.70;;
35150;SDS011;55720;51.972;4.624;2023-04-15T11:00:03;2.53;;;2.33;;
35150;SDS011;55720;51.972;4.624;2023-04-15T11:02:57;3.20;;;2.67;;
35150;SDS011;55720;51.972;4.624;2023-04-15T11:05:22;3.10;;;2.90;;
35150;SDS011;55720;51.972;4.624;2023-04-15T11:08:13;5.75;;;2.88;;
35150;SDS011;55720;51.972;4.624;2023-04-15T11:15:34;4.60;;;2.88;;
35150;SDS011;55720;51.972;4.624;2023-04-15T11:20:43;12.43;;;5.78;;
35150;SDS011;55720;51.972;4.624;2023-04-15T11:23:11;9.43;;;4.38;;
35150;SDS011;55720;51.972;4.624;2023-04-15T11:25:40;5.32;;;3.25;;
35150;SDS011;55720;51.972;4.624;2023-04-15T11:28:05;4.90;;;3.25;;
35150;SDS011;55720;51.972;4.624;2023-04-15T11:30:35;3.58;;;3.03;;
35150;SDS011;55720;51.972;4.624;2023-04-15T11:33:02;4.85;;;3.20;;
35150;SDS011;55720;51.972;4.624;2023-04-15T11:35:29;3.17;;;2.90;;
35150;SDS011;55720;51.972;4.624;2023-04-15T11:37:54;3.42;;;2.72;;
35150;SDS011;55720;51.972;4.624;2023-04-15T11:40:27;3.10;;;2.80;;
35150;SDS011;55720;51.972;4.624;2023-04-15T11:48:18;3.22;;;2.38;;
35150;SDS011;55720;51.972;4.624;2023-04-15T11:50:51;5.57;;;2.67;;
35150;SDS011;55720;51.972;4.624;2023-04-15T11:53:20;3.80;;;2.50;;
35150;SDS011;55720;51.972;4.624;2023-04-15T11:55:48;5.70;;;2.55;;
35150;SDS011;55720;51.972;4.624;2023-04-15T11:58:22;4.53;;;2.90;;
35150;SDS011;55720;51.972;4.624;2023-04-15T12:00:53;4.45;;;3.03;;
35150;SDS011;55720;51.972;4.624;2023-04-15T12:03:30;3.90;;;3.22;;
35150;SDS011;55720;51.972;4.624;2023-04-15T12:08:48;2.47;;;2.27;;
35150;SDS011;55720;51.972;4.624;2023-04-15T12:13:52;4.57;;;2.83;;
35150;SDS011;55720;51.972;4.624;2023-04-15T12:16:18;4.30;;;2.80;;
35150;SDS011;55720;51.972;4.624;2023-04-15T12:18:45;2.92;;;2.72;;
35150;SDS011;55720;51.972;4.624;2023-04-15T12:21:11;3.80;;;2.67;;
35150;SDS011;55720;51.972;4.624;2023-04-15T12:23:37;4.30;;;2.55;;
35150;SDS011;55720;51.972;4.624;2023-04-15T12:26:04;3.38;;;2.30;;
35150;SDS011;55720;51.972;4.624;2023-04-15T12:28:30;3.55;;;2.22;;
35150;SDS011;55720;51.972;4.624;2023-04-15T12:30:56;5.57;;;2.25;;
35150;SDS011;55720;51.972;4.624;2023-04-15T12:33:22;3.42;;;2.30;;
35150;SDS011;55720;51.972;4.624;2023-04-15T12:35:47;2.33;;;1.75;;
35150;SDS011;55720;51.972;4.624;2023-04-15T12:38:12;1.55;;;1.42;;
35150;SDS011;55720;51.972;4.624;2023-04-15T12:40:38;3.40;;;1.40;;
35150;SDS011;55720;51.972;4.624;2023-04-15T12:43:03;1.75;;;1.00;;
35150;SDS011;55720;51.972;4.624;2023-04-15T12:45:28;2.75;;;1.60;;
35150;SDS011;55720;51.972;4.624;2023-04-15T12:47:54;6.47;;;1.20;;
35150;SDS011;55720;51.972;4.624;2023-04-15T12:50:20;4.70;;;1.60;;
35150;SDS011;55720;51.972;4.624;2023-04-15T12:52:45;3.70;;;1.60;;
35150;SDS011;55720;51.972;4.624;2023-04-15T12:55:10;5.57;;;1.95;;
35150;SDS011;55720;51.972;4.624;2023-04-15T12:57:36;1.80;;;1.70;;
35150;SDS011;55720;51.972;4.624;2023-04-15T13:00:01;2.00;;;1.80;;
35150;SDS011;55720;51.972;4.624;2023-04-15T13:02:30;4.38;;;1.90;;
35150;SDS011;55720;51.972;4.624;2023-04-15T13:04:56;4.43;;;2.30;;
35150;SDS011;55720;51.972;4.624;2023-04-15T13:07:21;2.10;;;1.90;;
35150;SDS011;55720;51.972;4.624;2023-04-15T13:09:46;1.80;;;1.70;;
35150;SDS011;55720;51.972;4.624;2023-04-15T13:12:12;2.90;;;1.40;;
35150;SDS011;55720;51.972;4.624;2023-04-15T13:14:38;1.58;;;1.40;;
35150;SDS011;55720;51.972;4.624;2023-04-15T13:17:03;2.65;;;1.75;;
35150;SDS011;55720;51.972;4.624;2023-04-15T13:19:34;1.85;;;1.50;;
35150;SDS011;55720;51.972;4.624;2023-04-15T13:22:01;2.05;;;1.50;;
35150;SDS011;55720;51.972;4.624;2023-04-15T13:24:26;2.60;;;2.00;;
35150;SDS011;55720;51.972;4.624;2023-04-15T13:26:51;2.30;;;1.38;;
35150;SDS011;55720;51.972;4.624;2023-04-15T13:29:17;3.45;;;1.77;;
35150;SDS011;55720;51.972;4.624;2023-04-15T13:31:43;1.40;;;1.30;;
35150;SDS011;55720;51.972;4.624;2023-04-15T13:34:08;3.10;;;1.40;;
35150;SDS011;55720;51.972;4.624;2023-04-15T13:36:33;3.97;;;1.50;;
35150;SDS011;55720;51.972;4.624;2023-04-15T13:38:59;6.50;;;1.75;;
35150;SDS011;55720;51.972;4.624;2023-04-15T13:41:24;2.10;;;0.80;;
35150;SDS011;55720;51.972;4.624;2023-04-15T13:43:50;2.85;;;1.17;;
35150;SDS011;55720;51.972;4.624;2023-04-15T13:46:15;2.95;;;1.40;;
35150;SDS011;55720;51.972;4.624;2023-04-15T13:48:40;2.30;;;1.50;;
35150;SDS011;55720;51.972;4.624;2023-04-15T13:51:06;1.65;;;1.10;;
35150;SDS011;55720;51.972;4.624;2023-04-15T13:53:31;1.27;;;1.08;;
35150;SDS011;55720;51.972;4.624;2023-04-15T13:55:57;1.33;;;1.23;;
35150;SDS011;55720;51.972;4.624;2023-04-15T13:58:22;2.75;;;1.42;;
35150;SDS011;55720;51.972;4.624;2023-04-15T14:00:48;2.58;;;1.30;;
35150;SDS011;55720;51.972;4.624;2023-04-15T14:03:13;4.30;;;1.80;;
35150;SDS011;55720;51.972;4.624;2023-04-15T14:05:38;6.80;;;1.45;;
35150;SDS011;55720;51.972;4.624;2023-04-15T14:08:04;3.15;;;1.88;;
35150;SDS011;55720;51.972;4.624;2023-04-15T14:10:29;4.30;;;1.40;;
35150;SDS011;55720;51.972;4.624;2023-04-15T14:12:55;3.28;;;1.20;;
35150;SDS011;55720;51.972;4.624;2023-04-15T14:15:20;2.60;;;1.38;;
35150;SDS011;55720;51.972;4.624;2023-04-15T14:17:45;2.75;;;1.30;;
35150;SDS011;55720;51.972;4.624;2023-04-15T14:20:11;2.22;;;1.13;;
35150;SDS011;55720;51.972;4.624;2023-04-15T14:22:36;3.33;;;1.20;;
35150;SDS011;55720;51.972;4.624;2023-04-15T14:25:02;2.28;;;1.20;;
35150;SDS011;55720;51.972;4.624;2023-04-15T14:27:28;2.75;;;1.00;;
35150;SDS011;55720;51.972;4.624;2023-04-15T14:29:53;2.53;;;1.35;;
35150;SDS011;55720;51.972;4.624;2023-04-15T14:32:19;2.53;;;1.60;;
35150;SDS011;55720;51.972;4.624;2023-04-15T14:34:44;5.60;;;1.38;;
35150;SDS011;55720;51.972;4.624;2023-04-15T14:37:10;3.55;;;1.30;;
35150;SDS011;55720;51.972;4.624;2023-04-15T14:39:35;2.15;;;1.05;;
35150;SDS011;55720;51.972;4.624;2023-04-15T14:42:00;2.83;;;1.13;;
35150;SDS011;55720;51.972;4.624;2023-04-15T14:44:26;2.85;;;1.10;;
35150;SDS011;55720;51.972;4.624;2023-04-15T14:46:51;3.35;;;1.48;;
35150;SDS011;55720;51.972;4.624;2023-04-15T14:49:17;4.47;;;1.20;;
35150;SDS011;55720;51.972;4.624;2023-04-15T14:51:42;2.45;;;1.17;;
35150;SDS011;55720;51.972;4.624;2023-04-15T14:54:07;4.28;;;1.13;;
35150;SDS011;55720;51.972;4.624;2023-04-15T14:56:33;1.10;;;1.00;;
35150;SDS011;55720;51.972;4.624;2023-04-15T14:58:58;3.03;;;1.38;;
35150;SDS011;55720;51.972;4.624;2023-04-15T15:01:24;5.28;;;1.60;;